Météo Nord-Pas-de-Calais   La météo au plus près de chez vous

Station météorologique

Observations météo à Istres (13047)

13047001 23 m Dernier relevé à 04:42
21°C
Humidité 59 % Vent 11.9 km/h 1018.3 hPa

Journée consultée

Mardi 1 Septembre 2026

Synthèse de la journée

Périodes de référence en UTC

Température maximale

32.8°C

à 15:54

06h 06h

Température minimale

20.9°C

à 04:24

18h 18h

Rafale maximale

22 km/h

à 04:18

00h 00h

Précipitations

0 mm

Cumul quotidien

06h 06h

Graphiques de la journée

Heure locale Réduire

Données détaillées

Relevés météo

Pas de 6 minutes Afficher les relevés infra-horaires
Relevés météo détaillés à Istres pour le Mardi 1 Septembre 2026
Heure Température °C Point de rosée °C Humidité % Vent moyen (raf.), km/h Précipitations mm Visibilité m Pression hPa
04:42 21 °C 12.2 °C 57 % 14 km/h (19 km/h) 0 mm0 mm 60000 m 1018.2 hPa
04:36 21.3 °C 12.2 °C 56 % 14 km/h (19 km/h) 0 mm0 mm 60000 m 1018.2 hPa
04:30 21.1 °C 12.2 °C 57 % 12 km/h (17 km/h) 0 mm0 mm 60000 m 1018.3 hPa
04:24 20.9 °C 12.3 °C 58 % 12 km/h (22 km/h) 0 mm0 mm 60000 m 1018.3 hPa
04:18 21.2 °C 12.3 °C 57 % 14 km/h (22 km/h) 0 mm0 mm 60000 m 1018.3 hPa
04:12 21.1 °C 12.2 °C 57 % 14 km/h (17 km/h) 0 mm0 mm 60000 m 1018.3 hPa
04:06 21.6 °C 12.4 °C 56 % 15 km/h (19 km/h) 0 mm0 mm 60000 m 1018.3 hPa
04:00 21.8 °C 12.6 °C 56 % 15 km/h (19 km/h) 0 mm0 mm 60000 m 1018.3 hPa
03:54 21.5 °C 12.6 °C 57 % 15 km/h (21 km/h) 0 mm0 mm 60000 m 1018.3 hPa
03:48 21 °C 12.7 °C 59 % 13 km/h (16 km/h) 0 mm0 mm 60000 m 1018.2 hPa
03:42 21 °C 12.7 °C 59 % 12 km/h (16 km/h) 0 mm0 mm 60000 m 1018.3 hPa
03:36 21.2 °C 12.6 °C 58 % 12 km/h (15 km/h) 0 mm0 mm 60000 m 1018.4 hPa
03:30 21.4 °C 12.5 °C 57 % 12 km/h (15 km/h) 0 mm0 mm 60000 m 1018.4 hPa
03:24 21.3 °C 12.4 °C 57 % 12 km/h (18 km/h) 0 mm0 mm 60000 m 1018.5 hPa
03:18 21.5 °C 12.6 °C 57 % 12 km/h (18 km/h) 0 mm0 mm 60000 m 1018.5 hPa
03:12 21.7 °C 12.5 °C 56 % 13 km/h (16 km/h) 0 mm0 mm 60000 m 1018.4 hPa
03:06 21 °C 12.7 °C 59 % 12 km/h (15 km/h) 0 mm0 mm 60000 m 1018.4 hPa
03:00 21 °C 12.7 °C 59 % 8 km/h (14 km/h) 0 mm0 mm 60000 m 1018.5 hPa
02:54 21 °C 12.7 °C 59 % 8 km/h (13 km/h) 0 mm0 mm 60000 m 1018.5 hPa
02:48 21.1 °C 12.8 °C 59 % 10 km/h (13 km/h) 0 mm0 mm 60000 m 1018.6 hPa
02:42 21 °C 12.7 °C 59 % 10 km/h (13 km/h) 0 mm0 mm 60000 m 1018.6 hPa
02:36 21.2 °C 12.9 °C 59 % 9 km/h (11 km/h) 0 mm0 mm 60000 m 1018.5 hPa
02:30 21.4 °C 12.8 °C 58 % 8 km/h (9 km/h) 0 mm0 mm 60000 m 1018.5 hPa
02:24 21.4 °C 12.8 °C 58 % 8 km/h (9 km/h) 0 mm0 mm 60000 m 1018.7 hPa
02:18 21.5 °C 12.9 °C 58 % 8 km/h (11 km/h) 0 mm0 mm 60000 m 1018.7 hPa
02:12 21.6 °C 12.7 °C 57 % 10 km/h (14 km/h) 0 mm0 mm 60000 m 1018.7 hPa
02:06 21.8 °C 12.6 °C 56 % 12 km/h (14 km/h) 0 mm0 mm 60000 m 1018.8 hPa
02:00 21.9 °C 12.4 °C 55 % 12 km/h (14 km/h) 0 mm0 mm 60000 m 1018.7 hPa
01:54 22.1 °C 12.6 °C 55 % 12 km/h (15 km/h) 0 mm0 mm 60000 m 1018.6 hPa
01:48 21.9 °C 12.7 °C 56 % 12 km/h (14 km/h) 0 mm0 mm 60000 m 1018.6 hPa
01:42 22 °C 12.8 °C 56 % 10 km/h (13 km/h) 0 mm0 mm 60000 m 1018.7 hPa
01:36 22 °C 12.8 °C 56 % 11 km/h (16 km/h) 0 mm0 mm 60000 m 1018.7 hPa
01:30 22.4 °C 12.9 °C 55 % 13 km/h (16 km/h) 0 mm0 mm 60000 m 1018.7 hPa
01:24 22.4 °C 12.9 °C 55 % 13 km/h (16 km/h) 0 mm0 mm 60000 m 1018.7 hPa
01:18 22.4 °C 12.9 °C 55 % 12 km/h (15 km/h) 0 mm0 mm 60000 m 1018.8 hPa
01:12 22.5 °C 13 °C 55 % 12 km/h (16 km/h) 0 mm0 mm 60000 m 1018.7 hPa
01:06 22.5 °C 13.3 °C 56 % 13 km/h (18 km/h) 0 mm0 mm 60000 m 1018.7 hPa
01:00 22.4 °C 13.2 °C 56 % 13 km/h (17 km/h) 0 mm0 mm 60000 m 1018.7 hPa
00:54 22.4 °C 13.5 °C 57 % 14 km/h (17 km/h) 0 mm0 mm 60000 m 1018.6 hPa
00:48 22.5 °C 13.6 °C 57 % 13 km/h (16 km/h) 0 mm0 mm 60000 m 1018.5 hPa
00:42 22.4 °C 13.5 °C 57 % 13 km/h (16 km/h) 0 mm0 mm 60000 m 1018.5 hPa
00:36 22.3 °C 13.6 °C 58 % 13 km/h (15 km/h) 0 mm0 mm 60000 m 1018.4 hPa
00:30 22.4 °C 13.5 °C 57 % 13 km/h (15 km/h) 0 mm0 mm 60000 m 1018.4 hPa
00:24 22.6 °C 13.6 °C 57 % 13 km/h (15 km/h) 0 mm0 mm 60000 m 1018.4 hPa
00:18 22.4 °C 13.5 °C 57 % 12 km/h (15 km/h) 0 mm0 mm 60000 m 1018.4 hPa
00:12 22.4 °C 13.7 °C 58 % 10 km/h (14 km/h) 0 mm0 mm 60000 m 1018.3 hPa
00:06 23 °C 13.7 °C 56 % 10 km/h (12 km/h) 0 mm0 mm 60000 m 1018.2 hPa
00:00 23.2 °C 13.9 °C 56 % 10 km/h (12 km/h) 0 mm0 mm 60000 m 1018.3 hPa

Données via Météo-France

Relevés météo à Istres

Cette page rassemble les observations de la station de Istres : température, humidité, vent, précipitations et pression atmosphérique. Les graphiques facilitent le suivi de la journée, tandis que le tableau donne accès aux mesures horaires et infra-horaires disponibles.

Pour replacer ces mesures dans leur contexte, consultez la climatologie de Istres ainsi que ses normales et records. Retrouvez aussi la carte des observations météo en temps réel.